Date,TemperatureHighF,TemperatureAvgF,TemperatureLowF,DewpointHighF,DewpointAvgF,DewpointLowF,HumidityHigh,HumidityAvg,HumidityLow,PressureMaxIn,PressureMinIn,WindSpeedMaxMPH,WindSpeedAvgMPH,GustSpeedMaxMPH,PrecipitationSumIn
2012-4-2,66,66,66,45,45,45,47,47,47,30.04,30.04,7,7,7,0.00
2012-4-5,58,58,58,30,30,30,35,35,35,30.03,30.03,4,4,4,0.00
2012-4-6,35,35,35,33,32,32,91,91,91,30.24,30.24,0,0,0,0.00
2012-4-7,66,66,66,32,29,28,28,25,24,30.00,30.00,2,1,0,0.00
2012-4-15,45,45,45,44,44,44,95,95,95,30.16,30.16,0,0,0,0.00
2012-4-16,70,69,67,44,38,33,44,33,25,30.16,30.13,5,4,5,0.00
2012-4-17,69,61,55,52,49,48,77,66,51,30.08,30.04,4,2,6,0.00
2012-4-18,73,60,48,54,48,46,90,68,44,30.11,30.03,7,2,10,0.00
2012-4-22,86,67,54,62,56,51,91,70,45,29.88,29.79,3,1,11,0.00
2012-4-23,64,57,53,53,51,50,89,81,63,29.98,29.88,3,1,11,0.00
2012-4-24,72,62,55,56,55,53,95,79,57,30.03,29.92,2,0,11,0.02
2012-4-25,58,58,58,54,54,54,87,87,87,29.74,29.74,0,0,0,0.00
2012-4-26,64,57,48,55,47,38,91,71,37,30.17,29.74,6,2,16,0.03
2012-4-27,75,57,40,48,41,36,90,60,28,30.21,30.08,1,0,16,0.00
2012-4-28,84,65,48,56,48,44,84,59,30,30.11,29.83,4,0,16,0.00
2012-4-29,86,66,48,56,50,45,95,63,29,29.88,29.80,4,1,10,0.00
2012-4-30,78,62,51,54,50,47,90,67,37,29.92,29.82,3,1,10,0.00
2012-5-1,77,61,45,51,45,40,89,61,30,29.89,29.78,4,1,11,0.00
2012-5-2,71,56,40,46,41,37,89,61,36,29.92,29.84,3,1,11,0.00
2012-5-3,66,55,48,54,48,41,89,78,64,30.06,29.91,3,1,11,0.00
2012-5-4,73,60,51,50,45,42,83,62,34,30.17,30.05,2,1,11,0.00
2012-5-5,82,63,44,42,33,17,87,43,9,30.18,30.01,1,0,11,0.00
2012-5-6,88,74,57,39,32,27,51,23,11,30.03,29.93,2,0,14,0.00
2012-5-7,94,68,47,48,38,29,79,45,10,29.99,29.90,3,0,14,0.00
2012-5-8,90,79,62,50,40,30,47,28,16,29.92,29.83,3,1,10,0.00
2012-5-9,90,67,48,57,50,44,90,60,24,29.92,29.80,3,1,10,0.00
2012-5-10,54,48,44,49,44,41,91,86,84,29.90,29.85,0,0,10,0.00
2012-5-11,71,65,60,41,38,36,49,38,27,29.92,29.88,0,0,4,0.00
2012-5-12,92,67,47,56,48,41,87,56,20,30.00,29.91,3,1,11,0.00
2012-5-13,74,58,47,52,48,44,90,70,37,30.04,29.95,4,1,12,0.00
2012-5-14,73,62,52,50,48,46,85,63,41,30.07,29.99,4,1,12,0.00
2012-5-15,79,63,48,55,50,45,91,65,42,30.01,29.91,4,1,12,0.00
2012-5-16,80,62,48,57,51,44,90,69,45,30.01,29.86,3,1,12,0.00
2012-5-17,80,62,51,52,49,46,90,66,34,29.91,29.73,4,1,12,0.00
2012-5-18,83,64,44,47,44,40,92,54,23,29.93,29.85,4,1,13,0.00
2012-5-19,88,65,44,52,46,41,90,57,25,29.95,29.86,2,0,13,0.00
2012-5-20,91,66,49,54,49,44,87,59,26,29.94,29.86,2,0,9,0.00
2012-5-21,79,65,48,55,51,45,92,65,40,30.03,29.94,5,1,14,0.00
2012-5-22,83,67,53,55,50,46,93,60,27,30.07,29.97,3,1,14,0.00
2012-5-23,81,65,51,48,45,42,84,52,27,29.99,29.85,2,1,14,0.00
2012-5-24,79,62,49,47,42,40,72,49,25,29.87,29.65,4,1,14,0.00
2012-5-25,68,58,47,46,40,37,71,53,33,29.77,29.67,3,1,14,0.00
2012-5-26,75,56,43,56,47,40,92,73,40,30.03,29.79,4,1,14,0.15
2012-5-27,75,60,49,54,49,46,93,70,45,30.11,30.02,3,1,14,0.00
2012-5-28,75,58,44,51,46,41,93,69,42,30.04,29.93,3,1,14,0.00
2012-5-29,82,62,43,52,47,40,92,62,30,30.03,29.94,2,1,14,0.00
2012-5-30,90,68,46,57,50,43,92,59,24,30.06,29.94,4,1,14,0.00
2012-5-31,94,70,48,59,52,46,93,58,23,30.00,29.79,3,0,14,0.00
2012-6-1,96,72,53,62,57,50,92,62,27,29.81,29.68,3,1,14,0.00
2012-6-2,86,70,52,60,52,40,93,57,23,29.86,29.76,4,1,14,0.00
2012-6-3,86,67,50,54,48,42,88,56,29,29.89,29.80,6,2,15,0.00
2012-6-4,66,60,52,55,49,42,88,70,52,30.05,29.84,5,1,15,0.04
2012-6-5,73,59,44,45,41,36,90,55,26,30.13,30.06,2,0,15,0.00
2012-6-6,82,64,45,46,42,38,85,51,21,30.09,29.88,4,1,15,0.00
2012-6-7,84,65,45,53,47,41,90,56,27,29.96,29.89,6,1,18,0.00
2012-6-8,82,66,52,50,44,37,81,52,20,29.93,29.84,4,1,18,0.00
2012-6-9,84,67,44,42,32,21,82,37,10,29.96,29.84,2,0,18,0.00
2012-6-10,95,79,63,41,32,25,45,19,9,29.86,29.79,3,1,18,0.00
2012-6-11,97,74,50,55,46,40,71,42,16,29.90,29.83,2,0,18,0.00
2012-6-12,91,66,52,57,52,48,90,66,31,29.92,29.86,1,0,18,0.00
2012-6-13,86,77,62,60,57,53,72,51,41,29.79,29.69,3,2,10,0.00
2012-6-14,60,56,53,52,50,48,84,80,76,29.74,29.74,0,0,10,0.00
2012-6-19,92,70,53,58,52,48,87,59,26,29.86,29.76,2,0,10,0.00
2012-6-20,96,73,50,56,50,40,90,53,16,29.81,29.71,4,1,13,0.00
2012-6-21,76,62,51,53,50,47,90,68,43,29.89,29.75,4,1,13,0.00
2012-6-22,67,57,46,54,50,43,92,77,62,29.91,29.84,4,1,13,0.00
2012-6-23,71,60,48,50,46,44,89,64,41,29.89,29.81,5,2,14,0.00
2012-6-24,75,57,41,47,43,38,92,64,35,29.99,29.90,5,2,16,0.00
2012-6-25,72,58,42,50,45,38,91,65,42,30.05,29.98,6,2,16,0.00
2012-6-26,84,74,62,50,47,44,62,39,24,30.02,29.83,3,1,11,0.00
2012-6-27,88,67,47,51,45,37,90,51,21,29.89,29.82,3,1,11,0.00
2012-6-28,85,67,47,53,48,43,91,56,28,29.99,29.90,4,1,15,0.00
2012-6-29,83,65,53,56,53,48,92,69,38,30.05,29.98,2,1,15,0.00
2012-6-30,78,71,66,61,60,59,80,69,57,29.89,29.87,5,3,15,0.00
2012-7-1,83,71,62,62,59,57,84,68,45,29.91,29.80,4,1,15,0.00
2012-7-2,82,68,60,62,58,54,89,72,50,29.86,29.77,4,1,13,0.00
2012-7-3,88,68,49,59,54,46,93,65,37,29.87,29.74,3,1,13,0.00
2012-7-4,83,66,51,59,54,48,92,67,44,29.83,29.76,5,1,13,0.00
2012-7-5,82,65,55,56,52,47,86,65,30,29.93,29.84,4,1,13,0.00
2012-7-6,86,65,49,59,53,45,90,68,40,29.98,29.89,4,1,13,0.00
2012-7-7,98,72,50,58,47,33,93,52,11,29.96,29.84,5,1,12,0.00
2012-7-8,87,79,65,59,57,54,67,47,37,29.95,29.90,4,2,10,0.00
2012-7-9,88,67,49,60,54,46,91,66,36,30.02,29.88,2,1,10,0.00
2012-7-10,96,58,52,60,31,-100,93,58,18,29.93,29.75,2,0,10,0.00
2012-7-11,97,84,71,58,56,49,64,42,20,29.78,29.70,0,0,1,0.00
2012-7-12,93,72,54,63,57,51,90,64,35,29.81,29.72,3,1,11,0.00
2012-7-13,76,64,54,57,54,50,89,72,50,29.87,29.80,5,2,11,0.00
2012-7-14,80,64,54,58,54,50,88,72,46,29.93,29.80,4,1,11,0.00
2012-7-15,87,68,56,60,54,48,90,67,27,29.90,29.75,3,1,11,0.00
2012-7-16,76,61,54,54,51,49,84,71,43,29.85,29.78,4,1,10,0.00
2012-7-17,67,61,56,54,52,50,81,74,62,29.96,29.85,4,1,10,0.00
2012-7-18,78,58,46,56,49,44,93,76,45,29.99,29.93,2,0,10,0.00
2012-7-19,81,71,60,55,52,51,75,54,35,29.99,29.93,3,1,9,0.00
2012-7-20,86,62,50,58,52,47,93,74,32,30.05,30.00,1,0,9,0.00
2012-7-22,93,82,64,61,59,56,74,47,34,29.84,29.76,3,1,10,0.00
2012-7-23,82,66,57,58,55,52,88,70,45,29.90,29.83,4,1,13,0.00
2012-7-24,87,65,52,57,52,49,90,67,34,29.94,29.85,1,0,13,0.00
2012-7-25,84,67,50,59,53,47,91,64,41,29.97,29.87,4,1,13,0.00
2012-7-26,80,65,54,57,53,49,86,68,40,29.96,29.86,3,1,13,0.00
2012-7-27,76,59,54,57,52,50,86,77,51,29.98,29.93,2,1,13,0.00
2012-7-30,97,80,56,62,56,50,92,48,22,29.95,29.81,3,1,11,0.00
2012-7-31,93,72,53,60,56,50,90,61,33,29.94,29.86,3,1,11,0.00
2012-8-1,91,70,53,62,56,50,93,67,36,30.03,29.89,3,1,11,0.00
2012-8-2,93,71,56,62,57,54,92,67,34,29.97,29.81,3,1,11,0.00
2012-8-3,84,66,56,60,55,53,89,71,43,29.87,29.75,3,1,10,0.00
2012-8-4,78,69,60,58,56,53,81,64,48,29.92,29.84,4,1,13,0.00
2012-8-5,87,69,56,60,56,52,90,67,39,30.02,29.93,2,0,13,0.00
2012-8-6,93,70,53,59,53,46,90,61,22,30.10,29.96,2,0,13,0.00
2012-8-7,95,71,50,55,48,39,90,52,16,30.01,29.89,3,1,13,0.00
2012-8-8,98,71,48,57,51,45,88,56,20,29.97,29.84,2,0,13,0.00
2012-8-9,85,62,51,59,53,47,90,73,41,29.90,29.87,1,0,13,0.00
2012-8-10,98,75,52,61,56,49,93,58,28,29.81,29.66,3,1,7,0.00
2012-8-11,100,74,51,62,56,48,93,61,23,29.77,29.65,2,0,7,0.00
2012-8-12,94,72,52,60,55,49,91,59,28,29.83,29.72,2,0,7,0.00
2012-8-13,99,75,57,59,56,52,85,56,26,29.82,29.69,2,1,9,0.00
2012-8-14,90,72,59,59,54,37,83,58,16,29.78,29.70,2,0,9,0.00
2012-8-15,91,75,62,58,56,52,79,54,33,29.85,29.74,5,1,10,0.00
2012-8-16,93,70,52,59,52,44,87,58,22,29.92,29.80,3,0,10,0.00
2012-8-17,91,68,49,55,51,45,93,61,28,29.97,29.83,4,1,10,0.00
2012-8-18,97,75,60,56,52,46,76,50,20,29.92,29.80,4,1,12,0.00
2012-8-19,87,67,49,58,52,46,91,63,36,29.92,29.82,4,1,13,0.00
2012-8-20,90,66,50,58,54,47,94,68,34,29.91,29.78,3,1,13,0.00
2012-8-21,85,66,54,57,54,51,90,68,38,29.89,29.78,4,1,13,0.00
2012-8-22,84,65,54,58,55,50,92,73,41,29.90,29.81,4,1,13,0.00
2012-8-23,85,66,56,60,56,53,90,71,41,29.92,29.78,4,1,13,0.00
2012-8-24,84,65,55,58,55,52,93,72,39,29.88,29.77,3,1,13,0.00
2012-8-25,79,61,52,56,52,49,92,73,45,29.85,29.74,4,1,13,0.00
2012-8-26,83,62,53,53,50,46,86,68,29,29.94,29.81,3,0,13,0.00
2012-8-27,91,69,46,56,50,43,89,56,28,30.01,29.89,2,1,13,0.00
2012-8-28,93,70,50,56,50,43,93,57,19,29.99,29.86,3,0,13,0.00
2012-8-29,65,56,49,47,46,44,82,70,52,29.89,29.88,0,0,11,0.00
2012-8-30,77,66,57,57,55,53,86,69,49,29.79,29.71,3,2,9,0.00
2012-8-31,75,60,53,54,51,48,87,73,49,29.91,29.79,5,2,12,0.00
2012-9-1,78,62,52,56,52,48,89,72,43,30.01,29.91,3,1,12,0.00
2012-9-2,93,66,44,55,46,35,95,58,17,29.96,29.83,2,0,12,0.00
2012-9-3,97,70,47,52,45,41,91,49,15,29.93,29.83,3,0,12,0.00
2012-9-4,89,65,47,56,50,44,89,64,29,29.98,29.88,3,1,12,0.00
2012-9-5,80,61,45,56,50,42,94,70,45,29.96,29.86,1,0,12,0.00
2012-9-6,86,64,46,52,48,43,93,62,25,29.97,29.87,3,1,12,0.00
2012-9-7,92,75,56,50,47,38,75,41,17,30.05,29.92,2,0,6,0.00
2012-9-8,88,67,49,53,48,44,82,55,29,30.02,29.87,3,1,12,0.00
2012-9-9,88,64,43,51,46,39,93,59,24,29.94,29.81,2,0,12,0.00
2012-9-10,90,67,46,55,48,37,92,57,20,29.90,29.75,3,1,12,0.00
2012-9-11,85,65,49,57,52,45,93,66,34,29.92,29.80,3,1,12,0.00
2012-9-12,92,66,50,57,53,47,94,68,25,30.04,29.92,2,0,12,0.00
2012-9-13,96,69,50,59,53,47,92,62,28,30.06,29.93,2,0,12,0.00
2012-9-14,88,68,51,57,53,48,90,63,33,30.06,29.94,3,1,12,0.00
2012-9-15,90,77,56,55,49,46,69,41,27,30.00,29.92,2,1,6,0.00
2012-9-16,89,66,43,55,48,40,92,59,28,30.01,29.89,2,0,7,0.00
2012-9-17,84,61,46,53,48,43,92,67,32,30.02,29.91,3,1,10,0.00
2012-9-18,84,60,46,52,47,43,90,67,32,30.08,29.94,3,1,11,0.00
2012-9-19,83,61,42,54,48,39,93,66,36,30.07,29.96,2,1,11,0.00
2012-9-20,86,62,42,53,47,40,93,64,28,30.03,29.90,3,0,11,0.00
2012-9-21,89,64,42,52,47,38,92,61,27,29.96,29.82,2,0,11,0.00
2012-9-22,52,49,47,45,44,43,86,82,77,29.89,29.88,0,0,11,0.00
2012-9-23,82,71,60,52,42,32,76,42,19,29.89,29.84,2,1,7,0.00
2012-9-24,80,60,52,53,50,46,87,72,40,29.94,29.85,2,0,7,0.00
2012-9-25,84,71,58,58,56,53,83,61,38,29.84,29.78,2,1,6,0.00
2012-9-26,82,63,53,57,53,49,93,73,42,29.88,29.77,2,0,7,0.00
2012-9-27,93,68,50,59,54,47,95,67,28,29.90,29.77,2,0,7,0.00
2012-9-28,80,62,50,57,52,47,94,72,43,29.93,29.83,3,1,10,0.00
2012-9-29,88,64,48,56,51,45,94,69,31,30.01,29.91,2,0,10,0.00
2012-9-30,99,70,46,54,46,37,92,53,16,30.04,29.90,2,0,10,0.00
2012-10-1,105,75,50,46,39,30,75,37,10,29.97,29.83,4,0,14,0.00
2012-10-2,105,76,52,45,42,37,70,37,10,29.85,29.72,3,0,14,0.00
2012-10-3,92,70,53,57,48,42,82,50,23,29.94,29.76,3,1,14,0.00
2012-10-4,76,62,54,54,52,48,90,72,45,30.08,29.95,3,1,14,0.00
2012-10-5,75,61,48,54,50,46,93,70,43,30.11,30.02,5,1,15,0.00
2012-10-6,76,59,45,52,48,42,92,70,41,30.03,29.91,4,1,15,0.00
2012-10-7,79,59,42,54,47,40,93,69,38,29.98,29.87,4,1,15,0.00
2012-10-8,74,58,42,51,46,39,92,70,42,29.99,29.94,6,1,15,0.00
2012-10-9,75,58,43,51,46,40,94,69,40,30.00,29.89,2,0,15,0.00
2012-10-10,51,47,44,44,42,41,86,82,78,29.93,29.92,0,0,15,0.00
2012-11-15,68,57,50,51,47,45,86,70,46,29.99,29.91,3,0,0,0.00
2012-11-16,58,53,46,55,50,44,95,91,84,29.98,29.85,2,0,0,0.61
2012-11-17,64,57,51,59,54,49,98,91,65,29.97,29.77,5,0,0,1.36
2012-11-18,59,50,40,49,45,38,97,86,58,30.15,29.97,4,0,0,0.01
2012-11-19,64,56,50,52,49,45,95,79,58,30.20,30.11,6,1,0,0.00
2012-11-20,60,58,54,58,55,51,97,93,82,30.11,29.96,9,2,0,1.10
2012-11-21,64,55,42,58,50,40,97,85,53,30.19,30.00,5,0,0,0.05
2012-11-22,69,50,38,52,44,37,97,81,39,30.25,30.15,3,0,0,0.00
2012-11-23,74,51,37,51,42,36,97,78,32,30.25,30.14,1,0,0,0.00
2012-11-24,74,51,37,53,44,36,97,80,41,30.18,30.01,0,0,0,0.00
2012-11-25,68,50,38,54,45,37,97,84,57,30.01,29.90,3,0,0,0.00
2012-11-26,69,51,38,53,45,36,97,83,49,30.06,29.95,5,0,0,0.00
2012-11-27,61,53,47,54,49,46,97,88,65,30.10,29.98,3,0,0,0.00
2012-11-28,57,52,48,57,51,46,97,95,90,30.01,29.82,4,0,0,1.04
2012-11-29,61,56,52,57,54,50,97,91,71,30.01,29.79,16,3,0,1.58
2012-11-30,61,58,56,58,56,53,96,92,85,29.96,29.73,17,2,0,2.40
2012-12-1,60,57,56,59,56,53,98,94,82,29.99,29.80,9,1,0,0.65
2012-12-2,62,55,43,59,50,41,97,85,59,30.09,29.64,24,2,0,1.82
2012-12-3,62,49,38,51,45,37,97,87,54,30.19,30.08,3,0,0,0.00
2012-12-4,58,54,50,53,51,48,96,90,79,30.21,30.12,3,0,0,0.42
2012-12-5,60,57,54,59,56,52,98,97,95,30.15,30.07,2,0,0,0.32
2012-12-6,63,54,42,56,51,41,98,90,59,30.12,30.04,4,0,0,0.01
2012-12-7,63,46,36,49,42,35,97,85,50,30.13,30.04,2,0,0,0.01
2012-12-8,59,45,35,48,40,33,97,86,53,30.11,30.01,3,0,0,0.00
2012-12-9,73,56,39,47,41,38,96,64,29,30.16,30.07,3,0,0,0.00
2012-12-10,75,55,41,52,44,38,92,71,27,30.19,30.09,5,0,0,0.00
2012-12-11,60,47,36,49,43,35,97,85,65,30.09,29.81,6,0,0,0.04
2012-12-12,56,45,35,47,40,33,96,84,54,29.88,29.78,6,1,0,0.00
2012-12-13,57,40,31,43,33,29,96,80,40,29.92,29.81,3,0,0,0.00
2012-12-14,53,40,31,43,35,29,96,86,58,30.01,29.80,3,0,0,0.00
2012-12-15,43,37,30,42,36,28,96,95,92,30.07,29.99,3,0,0,0.14
2012-12-16,51,46,42,50,45,42,98,97,97,30.09,29.95,4,0,0,0.28
2012-12-17,59,50,38,54,48,36,98,90,64,30.01,29.91,6,0,0,0.15
2012-12-18,53,40,30,39,31,27,95,75,39,30.18,29.97,8,1,0,0.00
2012-12-19,51,35,26,34,28,24,94,77,37,30.30,30.17,9,1,0,0.00
2012-12-20,54,42,28,45,35,26,95,77,57,30.21,29.94,14,3,0,0.15
2012-12-21,54,50,46,50,47,42,96,91,78,29.94,29.80,15,3,0,1.71
2012-12-22,54,49,45,50,44,40,95,83,60,30.03,29.77,9,2,0,1.20
2012-12-23,57,49,43,55,48,41,100,94,86,30.02,29.78,11,2,0,1.94
2012-12-24,56,45,38,47,41,36,97,86,52,30.18,29.98,3,0,0,0.01
2012-12-25,44,41,36,43,40,34,97,96,93,30.13,29.76,3,0,0,0.90
2012-12-26,56,45,40,51,42,37,98,90,63,30.07,29.81,4,0,0,0.01
2012-12-27,58,44,34,43,38,33,95,81,45,30.15,30.06,3,0,0,0.00
2012-12-28,47,39,31,42,36,30,97,89,68,30.16,30.04,3,0,0,0.00
2012-12-29,57,44,35,40,37,33,93,77,43,30.06,29.98,4,0,0,0.00
2012-12-30,59,42,32,43,33,29,96,73,34,30.16,30.03,5,0,0,0.00
2012-12-31,56,41,29,35,30,24,90,68,31,30.27,30.16,4,0,0,0.00
2013-1-1,58,40,30,39,30,24,95,73,28,30.27,30.18,8,0,0,0.00